West Coast Vancouver Island South: Past 24 Hour Conditions

 

Tofino Airport

01:00 AM PST 23 November 2014
This table is a summary of hourly weather conditions for the past 24 hours.
Date / Time
(PST)
Wind(knots) Conditions Visibility(km) Pressure(kPa) Air tempC) Relative humidity(%) Dew pointC)
23 November 2014
1:00 SSE 10 gust 15 N/A N/A 101.5 9 90 7
0:00 WSW 4 gust 20 N/A N/A 101.6 9 86 6
22 November 2014
23:00 W 1 N/A N/A 101.5 10 84 7
22:00 ENE 6 N/A N/A 101.6 7 94 6
21:00 E 5 N/A N/A 101.6 6 96 5
20:00 E 3 N/A N/A 101.6 5 99 5
19:00 calm N/A N/A 101.5 6 98 6
18:00 ENE 4 N/A N/A 101.5 7 97 6
17:00 NNE 2 Mostly Cloudy 19 101.4 7 98 7
16:00 N 2 Light Rainshower 16 101.4 8 96 7
15:00 N 2 Partly Cloudy 24 101.3 9 84 6
14:00 NNW 4 Mostly Cloudy 19 101.2 10 81 7
13:00 WNW 8 Mostly Cloudy 24 101.1 10 82 7
12:00 WNW 7 Partly Cloudy 24 101.0 10 78 7
11:00 NW 2 Partly Cloudy 24 100.9 8 90 7
10:00 N 1 Partly Cloudy 24 100.8 7 97 7
9:00 N 1 Partly Cloudy 24 100.6 5 99 5
8:00 calm Fog 24 100.5 4 99 3
7:00 NNE 4 Partly Cloudy 24 100.4 4 99 4
6:00 NE 4 N/A N/A 100.3 5 97 5
5:00 NNW 3 N/A N/A 100.2 5 96 5
4:00 NE 3 N/A N/A 100.2 5 95 4
3:00 ENE 3 N/A N/A 100.1 6 96 5
2:00 NE 4 N/A N/A 100.0 6 93 5
1:00 WSW 4 N/A N/A 100.0 5 98 4
 
Map of Pacific - Georgia Basin marine weather areas Tsawwassen Ferry Terminal Sentry Shoal - 46131 Halibut Bank - 46146 La Perouse Bank - 46206 Discovery Island Esquimalt Harbour Kelp Reefs Malahat Race Rocks Lightstation Saturna Island Sheringham Point University of Victoria Victoria Gonzales Victoria Int'l Airport Ballenas Islands Campbell River Airport Comox Airport Entrance Island Fanny Island Nanaimo Airport Sisters Islets Estevan Point Tofino Airport Grief Point Powell River Airport Sechelt Point Atkinson Sand Heads Lightstation Vancouver Harbour Vancouver Int'l Airport West Vancouver Port Alberni Howe Sound - Pam Rocks Squamish Airport